createdAt,value
2019-01-04T00:01:59.493Z,60.41
2019-01-04T00:04:31.025Z,60.42
2019-01-04T00:07:02.416Z,60.47
2019-01-04T00:09:33.646Z,60.45
2019-01-04T00:12:04.942Z,60.49
2019-01-04T00:14:36.171Z,60.49
2019-01-04T00:17:07.445Z,60.53
2019-01-04T00:19:38.618Z,60.51
2019-01-04T00:22:11.950Z,60.54
2019-01-04T00:24:43.127Z,60.50
2019-01-04T00:27:14.325Z,60.52
2019-01-04T00:29:45.593Z,60.52
2019-01-04T00:32:16.795Z,60.58
2019-01-04T00:34:48.320Z,60.55
2019-01-04T00:37:19.636Z,60.57
2019-01-04T00:39:50.856Z,60.56
2019-01-04T00:42:22.085Z,60.57
2019-01-04T00:44:53.327Z,60.55
2019-01-04T00:47:24.573Z,60.58
2019-01-04T00:49:55.803Z,60.56
2019-01-04T00:52:26.997Z,60.66
2019-01-04T00:55:01.295Z,60.62
2019-01-04T00:57:55.068Z,60.67
2019-01-04T01:01:19.112Z,60.72
2019-01-04T01:04:34.617Z,60.74
2019-01-04T01:07:22.571Z,60.77
2019-01-04T01:10:27.816Z,60.78
2019-01-04T01:13:30.109Z,60.84
2019-01-04T01:16:53.510Z,60.90
2019-01-04T01:20:05.750Z,60.93
2019-01-04T01:23:17.787Z,61.05
2019-01-04T01:26:29.468Z,61.16
2019-01-04T01:29:58.871Z,61.18
2019-01-04T01:33:04.879Z,61.21
2019-01-04T01:36:10.799Z,61.27
2019-01-04T01:39:18.149Z,61.28
2019-01-04T01:42:20.439Z,61.22
2019-01-04T01:45:40.895Z,61.20
2019-01-04T01:48:34.255Z,61.21
2019-01-04T01:51:29.760Z,61.23
2019-01-04T01:54:00.951Z,61.17
2019-01-04T01:56:32.149Z,61.36
2019-01-04T01:59:03.390Z,61.28
2019-01-04T02:01:34.629Z,61.31
2019-01-04T02:04:05.879Z,61.40
2019-01-04T02:06:37.068Z,61.36
2019-01-04T02:09:10.310Z,61.42
2019-01-04T02:11:41.506Z,61.43
2019-01-04T02:14:12.748Z,61.46
2019-01-04T02:16:44.048Z,61.53
2019-01-04T02:19:15.268Z,61.58
2019-01-04T02:21:46.498Z,61.68
2019-01-04T02:24:17.730Z,61.68
2019-01-04T02:26:48.948Z,61.84
2019-01-04T02:29:20.150Z,61.77
2019-01-04T02:31:51.359Z,61.87
2019-01-04T02:34:22.549Z,62.05
2019-01-04T02:36:53.677Z,61.92
2019-01-04T02:39:24.914Z,61.96
2019-01-04T02:41:56.109Z,61.98
2019-01-04T02:44:27.299Z,61.93
2019-01-04T02:46:58.523Z,61.94
2019-01-04T02:49:29.804Z,62.06
2019-01-04T02:52:01.016Z,62.15
2019-01-04T02:54:32.246Z,62.09
2019-01-04T02:57:03.494Z,62.12
2019-01-04T02:59:34.684Z,62.12
2019-01-04T03:02:07.669Z,62.08
2019-01-04T03:04:38.883Z,62.09
2019-01-04T03:07:10.027Z,62.10
2019-01-04T03:09:41.366Z,62.12
2019-01-04T03:12:12.497Z,62.14
2019-01-04T03:14:43.729Z,62.26
2019-01-04T03:17:14.860Z,62.27
2019-01-04T03:19:46.097Z,62.24
2019-01-04T03:22:17.274Z,62.23
2019-01-04T03:24:48.448Z,62.42
2019-01-04T03:27:19.706Z,62.43
2019-01-04T03:29:51.076Z,62.63
2019-01-04T03:32:22.308Z,62.53
2019-01-04T03:34:53.510Z,62.46
2019-01-04T03:37:24.715Z,62.40
2019-01-04T03:39:55.941Z,62.45
2019-01-04T03:42:27.118Z,62.39
2019-01-04T03:44:58.301Z,62.35
2019-01-04T03:47:29.502Z,62.35
2019-01-04T03:50:00.932Z,62.33
2019-01-04T03:52:32.113Z,62.27
2019-01-04T03:55:03.319Z,62.28
2019-01-04T03:57:34.572Z,62.26
2019-01-04T04:00:06.623Z,62.31
2019-01-04T04:02:37.860Z,62.24
2019-01-04T04:05:09.107Z,62.19
2019-01-04T04:07:40.316Z,62.13
2019-01-04T04:10:11.498Z,62.12
2019-01-04T04:12:42.739Z,62.12
2019-01-04T04:15:13.991Z,62.13
2019-01-04T04:17:45.143Z,62.07
2019-01-04T04:20:16.327Z,62.06
2019-01-04T04:22:47.484Z,62.07
2019-01-04T04:25:18.682Z,61.99
2019-01-04T04:27:49.885Z,61.97
2019-01-04T04:30:21.082Z,61.98
2019-01-04T04:32:52.294Z,61.96
2019-01-04T04:35:23.551Z,61.97
2019-01-04T04:37:54.740Z,61.93
2019-01-04T04:40:25.918Z,62.05
2019-01-04T04:42:57.164Z,61.97
2019-01-04T04:45:28.369Z,62.03
2019-01-04T04:47:59.606Z,62.05
2019-01-04T04:50:30.845Z,62.06
2019-01-04T04:53:02.185Z,62.15
2019-01-04T04:55:33.434Z,62.24
2019-01-04T04:58:04.677Z,62.28
2019-01-04T05:00:35.902Z,62.19
2019-01-04T05:03:07.157Z,62.24
2019-01-04T05:05:38.334Z,62.23
2019-01-04T05:08:09.557Z,62.32
2019-01-04T05:10:40.678Z,62.25
2019-01-04T05:13:11.925Z,62.31
2019-01-04T05:15:43.101Z,62.28
2019-01-04T05:18:14.323Z,62.29
2019-01-04T05:20:45.500Z,62.20
2019-01-04T05:23:16.735Z,62.29
2019-01-04T05:25:47.930Z,62.33
2019-01-04T05:28:19.192Z,62.34
2019-01-04T05:30:50.417Z,62.42
2019-01-04T05:33:21.694Z,62.46
2019-01-04T05:35:52.911Z,62.51
2019-01-04T05:38:24.195Z,62.49
2019-01-04T05:40:55.396Z,62.67
2019-01-04T05:43:26.659Z,62.71
2019-01-04T05:45:57.954Z,62.75
2019-01-04T05:48:29.227Z,62.67
2019-01-04T05:51:00.511Z,62.76
2019-01-04T05:53:31.686Z,63.04
2019-01-04T05:56:02.863Z,62.82
2019-01-04T05:58:34.062Z,62.80
2019-01-04T06:01:05.226Z,62.67
2019-01-04T06:03:36.489Z,62.94
2019-01-04T06:06:07.678Z,62.92
2019-01-04T06:08:38.922Z,62.93
2019-01-04T06:11:11.253Z,63.06
2019-01-04T06:13:42.459Z,63.31
2019-01-04T06:16:13.677Z,63.33
2019-01-04T06:18:45.053Z,63.15
2019-01-04T06:21:16.292Z,63.11
2019-01-04T06:23:47.469Z,63.50
2019-01-04T06:26:18.711Z,63.14
2019-01-04T06:28:49.941Z,62.98
2019-01-04T06:31:21.175Z,63.42
2019-01-04T06:33:52.400Z,63.21
2019-01-04T06:36:23.689Z,63.32
2019-01-04T06:38:54.923Z,63.61
2019-01-04T06:41:26.184Z,63.43
2019-01-04T06:43:57.358Z,63.64
2019-01-04T06:46:28.597Z,63.55
2019-01-04T06:48:59.782Z,63.59
2019-01-04T06:51:31.000Z,63.77
2019-01-04T06:54:02.217Z,64.15
2019-01-04T06:56:33.393Z,63.64
2019-01-04T06:59:04.602Z,63.42
2019-01-04T07:01:36.174Z,63.53
2019-01-04T07:04:07.359Z,63.34
2019-01-04T07:06:38.530Z,63.42
2019-01-04T07:09:09.725Z,63.39
2019-01-04T07:11:40.989Z,63.73
2019-01-04T07:14:12.234Z,63.74
2019-01-04T07:16:43.497Z,63.73
2019-01-04T07:19:14.727Z,63.63
2019-01-04T07:21:46.010Z,63.77
2019-01-04T07:24:17.231Z,63.54
2019-01-04T07:26:48.480Z,63.85
2019-01-04T07:29:19.671Z,64.38
2019-01-04T07:31:50.901Z,64.59
2019-01-04T07:34:22.068Z,64.11
2019-01-04T07:36:53.289Z,64.72
2019-01-04T07:39:24.473Z,64.82
2019-01-04T07:41:55.673Z,64.88
2019-01-04T07:44:26.920Z,65.27
2019-01-04T07:46:58.145Z,65.19
2019-01-04T07:49:29.423Z,65.47
2019-01-04T07:52:00.598Z,65.60
2019-01-04T07:54:32.175Z,65.22
2019-01-04T07:57:03.405Z,65.20
2019-01-04T07:59:34.620Z,64.89
2019-01-04T08:02:33.813Z,64.83
2019-01-04T08:05:06.748Z,64.84
2019-01-04T08:07:38.018Z,64.98
2019-01-04T08:10:09.336Z,65.08
2019-01-04T08:12:40.733Z,65.31
2019-01-04T08:15:11.927Z,65.55
2019-01-04T08:17:43.164Z,65.09
2019-01-04T08:20:14.436Z,64.90
2019-01-04T08:22:45.786Z,64.93
2019-01-04T08:25:16.966Z,64.89
2019-01-04T08:27:48.188Z,64.68
2019-01-04T08:30:20.441Z,64.73
2019-01-04T08:32:51.829Z,64.87
2019-01-04T08:35:23.172Z,66.02
2019-01-04T08:37:54.336Z,65.25
2019-01-04T08:40:25.608Z,65.30
2019-01-04T08:42:56.814Z,65.57
2019-01-04T08:45:28.027Z,65.28
2019-01-04T08:47:59.296Z,65.62
2019-01-04T08:50:30.925Z,65.62
2019-01-04T08:53:02.166Z,65.38
2019-01-04T08:55:33.476Z,65.50
2019-01-04T08:58:04.651Z,65.31
2019-01-04T09:00:35.978Z,65.25
2019-01-04T09:03:07.202Z,65.25
2019-01-04T09:05:38.410Z,65.04
2019-01-04T09:08:09.653Z,66.26
2019-01-04T09:10:40.902Z,65.25
2019-01-04T09:13:12.173Z,65.43
2019-01-04T09:15:43.378Z,65.48
2019-01-04T09:18:14.690Z,65.34
2019-01-04T09:20:45.984Z,65.39
2019-01-04T09:23:17.469Z,65.31
2019-01-04T09:25:48.750Z,65.77
2019-01-04T09:28:20.095Z,65.57
2019-01-04T09:30:51.281Z,65.75
2019-01-04T09:33:22.483Z,65.77
2019-01-04T09:35:53.999Z,65.77
2019-01-04T09:38:25.210Z,65.97
2019-01-04T09:41:21.250Z,65.95
2019-01-04T09:43:52.426Z,65.78
2019-01-04T09:46:23.606Z,66.24
2019-01-04T09:48:54.881Z,66.28
2019-01-04T09:51:26.166Z,66.12
2019-01-04T09:53:57.566Z,67.09
2019-01-04T09:56:28.940Z,67.09
2019-01-04T09:59:00.179Z,66.66
2019-01-04T10:01:31.554Z,66.52
2019-01-04T10:04:02.817Z,66.44
2019-01-04T10:06:34.124Z,66.68
2019-01-04T10:09:06.846Z,66.62
2019-01-04T10:11:38.061Z,67.33
2019-01-04T10:14:09.299Z,67.26
2019-01-04T10:16:40.472Z,67.79
2019-01-04T10:19:11.630Z,67.81
2019-01-04T10:21:42.810Z,67.90
2019-01-04T10:24:14.004Z,68.12
2019-01-04T10:26:45.189Z,67.30
2019-01-04T10:29:16.448Z,67.43
2019-01-04T10:31:47.690Z,67.89
2019-01-04T10:34:18.895Z,67.37
2019-01-04T10:36:50.139Z,67.08
2019-01-04T10:39:21.352Z,67.26
2019-01-04T10:41:52.791Z,68.40
2019-01-04T10:44:23.979Z,68.50
2019-01-04T10:46:55.166Z,68.50
2019-01-04T10:49:26.352Z,68.13
2019-01-04T10:51:57.553Z,68.43
2019-01-04T10:54:28.715Z,68.12
2019-01-04T10:57:00.106Z,68.44
2019-01-04T10:59:31.353Z,68.77
2019-01-04T11:02:02.582Z,68.01
2019-01-04T11:04:33.906Z,68.41
2019-01-04T11:07:05.097Z,68.26
2019-01-04T11:09:36.302Z,67.63
2019-01-04T11:12:07.620Z,67.63
2019-01-04T11:14:38.812Z,68.08
2019-01-04T11:17:10.062Z,67.61
2019-01-04T11:19:41.249Z,67.78
2019-01-04T11:22:48.585Z,67.70
2019-01-04T11:25:57.886Z,67.79
2019-01-04T11:28:52.980Z,67.98
2019-01-04T11:31:36.816Z,68.40
2019-01-04T11:34:17.908Z,68.06
2019-01-04T11:37:18.087Z,67.69
2019-01-04T11:40:07.813Z,67.78
2019-01-04T11:43:22.667Z,67.75
2019-01-04T11:46:09.881Z,67.48
2019-01-04T11:49:20.699Z,67.62
2019-01-04T11:52:03.925Z,67.21
2019-01-04T11:54:35.216Z,67.45
2019-01-04T11:57:06.491Z,67.06
2019-01-04T11:59:37.720Z,67.40
2019-01-04T12:02:08.960Z,67.24
2019-01-04T12:04:40.212Z,67.61
2019-01-04T12:07:11.389Z,67.36
2019-01-04T12:09:42.650Z,67.14
2019-01-04T12:12:13.823Z,67.35
2019-01-04T12:14:45.180Z,67.09
2019-01-04T12:17:16.402Z,66.92
2019-01-04T12:19:47.632Z,66.90
2019-01-04T12:22:18.931Z,67.16
2019-01-04T12:24:50.145Z,66.63
2019-01-04T12:27:21.463Z,66.47
2019-01-04T12:29:52.661Z,67.23
2019-01-04T12:32:23.866Z,67.36
2019-01-04T12:34:55.093Z,66.68
2019-01-04T12:37:26.323Z,67.06
2019-01-04T12:39:57.573Z,66.59
2019-01-04T12:42:28.811Z,66.54
2019-01-04T12:45:00.132Z,66.37
2019-01-04T12:47:31.535Z,66.34
2019-01-04T12:50:02.666Z,66.47
2019-01-04T12:52:33.916Z,66.17
2019-01-04T12:55:05.619Z,66.06
2019-01-04T12:57:37.851Z,66.24
2019-01-04T13:00:11.424Z,66.05
2019-01-04T13:02:42.839Z,66.26
2019-01-04T13:05:14.097Z,66.05
2019-01-04T13:07:45.283Z,66.42
2019-01-04T13:10:16.518Z,66.51
2019-01-04T13:12:47.686Z,66.44
2019-01-04T13:15:18.871Z,66.58
2019-01-04T13:17:50.085Z,66.55
2019-01-04T13:20:21.299Z,66.63
2019-01-04T13:22:52.615Z,66.49
2019-01-04T13:25:23.824Z,66.39
2019-01-04T13:27:55.102Z,66.44
2019-01-04T13:30:27.381Z,66.55
2019-01-04T13:32:58.555Z,66.34
2019-01-04T13:35:29.752Z,66.35
2019-01-04T13:38:00.979Z,66.32
2019-01-04T13:40:32.180Z,66.28
2019-01-04T13:43:03.687Z,66.35
2019-01-04T13:45:34.995Z,66.35
2019-01-04T13:48:06.651Z,66.72
2019-01-04T13:50:38.342Z,66.41
2019-01-04T13:53:09.598Z,66.43
2019-01-04T13:55:40.891Z,66.31
2019-01-04T13:58:12.111Z,66.49
2019-01-04T14:00:43.371Z,66.38
2019-01-04T14:03:14.710Z,66.15
2019-01-04T14:05:46.063Z,66.40
2019-01-04T14:08:17.808Z,66.09
2019-01-04T14:10:49.342Z,66.15
2019-01-04T14:13:20.903Z,66.25
2019-01-04T14:15:52.615Z,66.20
2019-01-04T14:18:24.095Z,66.13
2019-01-04T14:20:55.281Z,66.14
2019-01-04T14:23:28.896Z,66.30
2019-01-04T14:25:59.601Z,66.30
2019-01-04T14:28:30.795Z,66.21
2019-01-04T14:31:01.975Z,66.21
2019-01-04T14:33:33.331Z,66.17
2019-01-04T14:36:06.954Z,66.38
2019-01-04T14:38:38.386Z,66.23
2019-01-04T14:41:09.693Z,66.12
2019-01-04T14:43:40.872Z,66.48
2019-01-04T14:46:12.059Z,66.84
2019-01-04T14:48:43.385Z,66.51
2019-01-04T14:51:14.578Z,66.83
2019-01-04T14:53:45.749Z,66.76
2019-01-04T14:56:18.584Z,67.09
2019-01-04T14:58:49.781Z,66.94
2019-01-04T15:01:20.927Z,67.00
2019-01-04T15:03:52.125Z,67.49
2019-01-04T15:06:23.443Z,67.47
2019-01-04T15:08:54.570Z,67.12
2019-01-04T15:11:25.844Z,67.60
2019-01-04T15:13:57.058Z,67.22
2019-01-04T15:16:28.217Z,67.38
2019-01-04T15:18:59.478Z,67.51
2019-01-04T15:21:30.680Z,67.38
2019-01-04T15:24:02.018Z,67.21
2019-01-04T15:26:33.195Z,67.42
2019-01-04T15:29:04.455Z,67.36
2019-01-04T15:31:35.635Z,67.26
2019-01-04T15:34:06.921Z,67.57
2019-01-04T15:36:38.322Z,67.47
2019-01-04T15:39:09.512Z,67.51
2019-01-04T15:41:40.908Z,67.67
2019-01-04T15:44:12.109Z,67.15
2019-01-04T15:46:43.400Z,67.49
2019-01-04T15:49:14.654Z,67.20
2019-01-04T15:51:45.882Z,67.44
2019-01-04T15:54:17.052Z,67.28
2019-01-04T15:56:48.299Z,67.34
2019-01-04T15:59:19.712Z,67.41
2019-01-04T16:01:50.929Z,67.32
2019-01-04T16:04:22.202Z,67.32
2019-01-04T16:06:53.491Z,67.03
2019-01-04T16:09:25.100Z,67.27
2019-01-04T16:11:57.112Z,67.49
2019-01-04T16:14:28.323Z,67.25
2019-01-04T16:16:59.836Z,67.24
2019-01-04T16:19:31.606Z,67.21
2019-01-04T16:22:03.084Z,67.34
2019-01-04T16:24:35.041Z,67.65
2019-01-04T16:27:06.492Z,67.42
2019-01-04T16:29:37.838Z,67.21
2019-01-04T16:32:09.283Z,67.39
2019-01-04T16:34:41.585Z,67.37
2019-01-04T16:37:13.392Z,67.41
2019-01-04T16:39:45.062Z,67.37
2019-01-04T16:42:17.890Z,67.30
2019-01-04T16:44:49.617Z,67.13
2019-01-04T16:47:21.214Z,67.04
2019-01-04T16:49:52.648Z,66.81
2019-01-04T16:52:24.351Z,67.29
2019-01-04T16:54:55.552Z,67.37
2019-01-04T16:57:26.768Z,67.24
2019-01-04T16:59:57.911Z,67.29
2019-01-04T17:02:29.154Z,67.23
2019-01-04T17:05:00.516Z,67.22
2019-01-04T17:07:31.756Z,67.07
2019-01-04T17:10:03.119Z,67.09
2019-01-04T17:12:34.326Z,67.05
2019-01-04T17:15:06.036Z,66.70
2019-01-04T17:17:37.329Z,66.84
2019-01-04T17:20:08.912Z,66.96
2019-01-04T17:22:40.148Z,66.80
2019-01-04T17:25:12.370Z,66.87
2019-01-04T17:27:43.849Z,66.81
2019-01-04T17:30:15.237Z,66.86
2019-01-04T17:32:46.497Z,66.81
2019-01-04T17:35:17.726Z,66.69
2019-01-04T17:37:49.126Z,66.84
2019-01-04T17:40:20.497Z,66.74
2019-01-04T17:42:51.745Z,66.76
2019-01-04T17:45:23.321Z,66.68
2019-01-04T17:47:54.669Z,66.56
2019-01-04T17:50:25.921Z,66.69
2019-01-04T17:52:57.220Z,66.64
2019-01-04T17:55:28.406Z,66.69
2019-01-04T17:57:59.694Z,66.58
2019-01-04T18:00:31.475Z,66.62
2019-01-04T18:03:02.702Z,66.75
2019-01-04T18:05:33.984Z,66.61
2019-01-04T18:08:06.583Z,66.54
2019-01-04T18:10:37.846Z,66.64
2019-01-04T18:13:09.140Z,66.59
2019-01-04T18:15:41.437Z,66.65
2019-01-04T18:18:12.824Z,66.54
2019-01-04T18:20:44.191Z,66.50
2019-01-04T18:23:15.521Z,66.64
2019-01-04T18:25:47.749Z,66.43
2019-01-04T18:28:19.002Z,66.57
2019-01-04T18:30:50.294Z,66.51
2019-01-04T18:33:21.553Z,66.71
2019-01-04T18:35:53.727Z,66.67
2019-01-04T18:38:24.988Z,66.63
2019-01-04T18:40:56.262Z,66.65
2019-01-04T18:43:27.853Z,66.68
2019-01-04T18:45:59.059Z,66.55
2019-01-04T18:48:30.473Z,66.46
2019-01-04T18:51:01.704Z,66.66
2019-01-04T18:53:32.937Z,66.45
2019-01-04T18:56:04.184Z,66.51
2019-01-04T18:58:35.643Z,66.49
2019-01-04T19:01:06.875Z,66.50
2019-01-04T19:03:38.122Z,66.58
2019-01-04T19:06:10.389Z,66.47
2019-01-04T19:08:42.225Z,66.53
2019-01-04T19:11:13.429Z,66.66
2019-01-04T19:13:44.734Z,66.65
2019-01-04T19:16:15.968Z,66.55
2019-01-04T19:18:47.184Z,66.77
2019-01-04T19:21:18.454Z,66.66
2019-01-04T19:23:49.743Z,66.80
2019-01-04T19:26:22.259Z,66.80
2019-01-04T19:28:53.523Z,66.62
2019-01-04T19:31:24.816Z,66.77
2019-01-04T19:33:56.034Z,66.75
2019-01-04T19:36:27.365Z,66.84
2019-01-04T19:38:58.624Z,66.78
2019-01-04T19:41:29.823Z,66.81
2019-01-04T19:44:02.124Z,66.77
2019-01-04T19:46:33.343Z,67.33
2019-01-04T19:49:04.791Z,67.07
2019-01-04T19:51:36.219Z,67.03
2019-01-04T19:54:07.710Z,67.36
2019-01-04T19:56:38.973Z,67.35
2019-01-04T19:59:10.331Z,67.29
2019-01-04T20:01:41.537Z,67.70
2019-01-04T20:04:12.834Z,67.57
2019-01-04T20:07:42.113Z,67.72
2019-01-04T20:11:42.453Z,67.86
2019-01-04T20:15:18.864Z,68.87
2019-01-04T20:18:24.131Z,68.56
2019-01-04T20:21:13.309Z,68.63
2019-01-04T20:24:06.696Z,68.67
2019-01-04T20:26:59.927Z,68.40
2019-01-04T20:29:49.082Z,68.83
2019-01-04T20:32:39.329Z,68.65
2019-01-04T20:35:38.836Z,69.03
2019-01-04T20:38:37.850Z,69.14
2019-01-04T20:41:37.029Z,68.61
2019-01-04T20:44:20.031Z,68.91
2019-01-04T20:47:16.294Z,68.91
2019-01-04T20:50:02.393Z,69.15
2019-01-04T20:53:10.907Z,68.97
2019-01-04T20:55:59.698Z,69.39
2019-01-04T20:58:43.830Z,69.36
2019-01-04T21:01:34.001Z,69.68
2019-01-04T21:04:27.308Z,69.33
2019-01-04T21:07:23.505Z,69.29
2019-01-04T21:10:22.592Z,69.25
2019-01-04T21:13:03.607Z,69.54
2019-01-04T21:16:00.003Z,69.99
2019-01-04T21:18:59.412Z,70.35
2019-01-04T21:21:49.267Z,70.06
2019-01-04T21:24:37.996Z,69.66
2019-01-04T21:27:19.296Z,70.03
2019-01-04T21:30:09.502Z,69.81
2019-01-04T21:33:12.190Z,69.65
2019-01-04T21:36:12.382Z,69.88
2019-01-04T21:39:01.848Z,69.91
2019-01-04T21:42:00.079Z,70.24
2019-01-04T21:44:53.065Z,69.98
2019-01-04T21:47:42.186Z,69.95
2019-01-04T21:50:51.800Z,70.04
2019-01-04T21:53:49.525Z,69.32
2019-01-04T21:56:48.751Z,69.07
2019-01-04T21:59:44.842Z,69.38
2019-01-04T22:02:43.925Z,69.21
2019-01-04T22:05:46.403Z,70.34
2019-01-04T22:08:35.259Z,70.42
2019-01-04T22:11:24.107Z,70.21
2019-01-04T22:14:17.031Z,70.91
2019-01-04T22:17:05.938Z,70.26
2019-01-04T22:19:56.100Z,69.96
2019-01-04T22:22:49.192Z,69.24
2019-01-04T22:25:42.968Z,69.60
2019-01-04T22:28:32.229Z,69.23
2019-01-04T22:31:34.538Z,69.33
2019-01-04T22:34:37.383Z,69.06
2019-01-04T22:37:36.861Z,69.15
2019-01-04T22:40:33.355Z,68.89
2019-01-04T22:43:26.510Z,69.05
2019-01-04T22:46:15.713Z,69.21
2019-01-04T22:49:09.171Z,68.90
2019-01-04T22:52:03.418Z,68.77
2019-01-04T22:54:52.271Z,69.34
2019-01-04T22:57:37.173Z,69.25
2019-01-04T23:00:34.055Z,69.21
2019-01-04T23:03:23.658Z,69.27
2019-01-04T23:06:23.184Z,69.20
2019-01-04T23:09:28.099Z,69.16
2019-01-04T23:12:16.935Z,69.34
2019-01-04T23:15:06.123Z,69.30
2019-01-04T23:18:00.209Z,69.27
2019-01-04T23:20:53.476Z,69.23
2019-01-04T23:23:34.159Z,69.41
2019-01-04T23:26:22.986Z,69.65
2019-01-04T23:29:12.889Z,69.64
2019-01-04T23:32:02.241Z,69.46
2019-01-04T23:34:51.288Z,69.59
2019-01-04T23:37:41.422Z,69.63
2019-01-04T23:40:43.641Z,69.41
2019-01-04T23:43:49.118Z,69.38
2019-01-04T23:46:37.578Z,69.13
2019-01-04T23:49:46.114Z,69.71
2019-01-04T23:52:39.325Z,69.28
2019-01-04T23:55:33.315Z,69.46
2019-01-04T23:58:26.690Z,69.26
